Time;durP1;ratioP1;P1;durP2;ratioP2;P2;SDS_P1;SDS_P2;PMS_P1;PMS_P2;Temp;Humidity;BMP_temperature;BMP_pressure;BME280_temperature;BME280_humidity;BME280_pressure;Samples;Min_cycle;Max_cycle;Signal;HPM_P1;HPM_P2
2023/06/04 00:01:29;;;;;;;3.23;1.27;;;13.30;69.10;;;;;;5048119;28;20477;-81
2023/06/04 00:03:56;;;;;;;1.10;1.00;;;13.30;69.60;;;;;;5046614;28;20457;-79
2023/06/04 00:06:24;;;;;;;2.23;1.00;;;13.30;70.20;;;;;;5043739;28;20474;-79
2023/06/04 00:08:51;;;;;;;2.83;1.23;;;13.20;70.10;;;;;;5048219;28;20457;-80
2023/06/04 00:11:18;;;;;;;1.00;0.90;;;13.30;70.50;;;;;;5041963;28;20503;-80
2023/06/04 00:13:45;;;;;;;2.70;1.07;;;13.20;71.20;;;;;;5046452;28;20497;-80
2023/06/04 00:16:12;;;;;;;1.10;1.00;;;13.10;71.70;;;;;;5048031;28;20787;-81
2023/06/04 00:18:39;;;;;;;1.20;0.90;;;13.00;73.00;;;;;;5047089;28;20511;-79
2023/06/04 00:21:06;;;;;;;2.10;0.97;;;13.00;72.40;;;;;;5046862;28;20497;-80
2023/06/04 00:23:35;;;;;;;2.30;1.00;;;13.00;72.90;;;;;;5047208;28;20441;-81
2023/06/04 00:26:02;;;;;;;1.10;1.00;;;12.90;73.80;;;;;;5047244;28;20546;-81
2023/06/04 00:28:28;;;;;;;1.80;0.80;;;12.90;74.90;;;;;;5048162;28;20495;-80
2023/06/04 00:30:56;;;;;;;3.47;1.30;;;12.90;74.40;;;;;;5046028;28;20497;-79
2023/06/04 00:33:23;;;;;;;2.60;1.40;;;12.80;75.50;;;;;;5048169;28;20444;-78
2023/06/04 00:35:49;;;;;;;1.80;1.20;;;12.80;75.60;;;;;;5047738;28;20851;-81
2023/06/04 00:38:16;;;;;;;2.43;1.33;;;12.70;76.30;;;;;;5046887;28;20554;-78
2023/06/04 00:40:45;;;;;;;1.60;1.07;;;12.60;76.60;;;;;;5045566;28;20461;-78
2023/06/04 00:43:13;;;;;;;1.37;1.10;;;12.60;76.40;;;;;;5046875;28;20443;-80
2023/06/04 00:45:40;;;;;;;1.10;1.00;;;12.50;76.50;;;;;;5046702;28;20552;-81
2023/06/04 00:48:07;;;;;;;2.13;1.33;;;12.50;77.70;;;;;;5043422;28;20441;-81
2023/06/04 00:50:35;;;;;;;1.77;1.30;;;12.50;78.80;;;;;;5047057;28;20538;-81
2023/06/04 00:53:02;;;;;;;2.33;1.20;;;12.40;78.90;;;;;;5047640;28;20452;-79
2023/06/04 00:55:29;;;;;;;1.37;0.97;;;12.30;79.30;;;;;;5046758;28;20465;-79
2023/06/04 00:57:58;;;;;;;1.47;0.90;;;12.40;79.30;;;;;;5049631;28;20468;-81
2023/06/04 01:00:25;;;;;;;3.63;1.33;;;12.30;79.50;;;;;;5048577;28;20457;-81
2023/06/04 01:02:55;;;;;;;1.30;0.97;;;12.20;80.70;;;;;;5041821;28;20506;-79
2023/06/04 01:05:30;;;;;;;1.70;1.10;;;12.20;81.40;;;;;;5053292;28;20480;-80
2023/06/04 01:07:58;;;;;;;2.60;0.90;;;12.10;81.50;;;;;;5062316;28;20452;-81
2023/06/04 01:10:25;;;;;;;1.57;1.20;;;12.10;83.20;;;;;;5061931;28;20929;-79
2023/06/04 01:12:52;;;;;;;1.70;0.93;;;12.10;83.20;;;;;;5046616;28;20505;-78
2023/06/04 01:15:21;;;;;;;1.50;1.10;;;12.10;82.20;;;;;;5051894;28;20959;-79
2023/06/04 01:17:51;;;;;;;1.40;1.07;;;12.10;81.90;;;;;;5046463;28;20936;-80
2023/06/04 01:20:36;;;;;;;1.97;1.37;;;12.00;83.60;;;;;;5038909;28;20994;-82
2023/06/04 01:23:28;;;;;;;3.43;0.90;;;12.10;83.10;;;;;;5037477;28;20484;-79
2023/06/04 01:25:57;;;;;;;3.63;1.50;;;12.00;83.80;;;;;;5045436;28;20487;-80
2023/06/04 01:28:24;;;;;;;1.77;0.90;;;12.00;84.40;;;;;;5045452;28;20481;-78
2023/06/04 01:30:56;;;;;;;1.23;0.80;;;12.00;85.20;;;;;;5041006;28;20474;-80
2023/06/04 01:33:23;;;;;;;1.10;1.00;;;12.00;84.30;;;;;;5034085;28;20550;-80
2023/06/04 01:35:50;;;;;;;2.57;1.37;;;12.00;84.50;;;;;;5029163;28;20469;-81
2023/06/04 01:38:17;;;;;;;3.73;1.87;;;12.00;86.20;;;;;;5043636;28;20550;-80
2023/06/04 01:40:45;;;;;;;4.70;1.17;;;11.90;85.70;;;;;;5040744;28;20534;-81
2023/06/04 01:43:12;;;;;;;2.63;1.37;;;12.00;85.30;;;;;;5045098;28;20457;-78
2023/06/04 01:45:38;;;;;;;1.30;1.00;;;12.00;86.30;;;;;;5046588;28;20489;-80
2023/06/04 01:48:07;;;;;;;1.30;1.20;;;12.00;86.40;;;;;;5047069;28;20485;-80
2023/06/04 01:50:34;;;;;;;1.73;1.17;;;12.00;86.40;;;;;;5045092;28;20453;-80
2023/06/04 01:53:01;;;;;;;4.20;1.10;;;12.00;87.30;;;;;;5046958;28;20525;-80
2023/06/04 01:55:33;;;;;;;2.40;1.43;;;11.90;87.10;;;;;;5046157;28;20842;-82
2023/06/04 01:58:00;;;;;;;2.17;1.50;;;11.90;87.80;;;;;;5046310;28;20994;-80
2023/06/04 02:00:27;;;;;;;3.60;1.10;;;11.80;88.30;;;;;;5044936;28;20461;-79
2023/06/04 02:02:55;;;;;;;2.43;1.20;;;11.70;90.20;;;;;;5045875;28;21237;-79
2023/06/04 02:05:24;;;;;;;3.03;0.93;;;11.60;90.00;;;;;;5041022;28;20492;-79
2023/06/04 02:07:51;;;;;;;1.70;1.20;;;11.60;90.00;;;;;;5033166;28;20429;-79
2023/06/04 02:10:20;;;;;;;1.37;1.27;;;11.70;90.10;;;;;;5045364;28;20491;-83
2023/06/04 02:12:58;;;;;;;2.30;1.10;;;11.60;90.40;;;;;;5040578;28;20838;-79
2023/06/04 02:15:26;;;;;;;4.37;1.30;;;11.70;90.60;;;;;;5044361;28;20493;-80
2023/06/04 02:17:58;;;;;;;4.10;1.17;;;11.60;90.50;;;;;;5046355;28;20441;-79
2023/06/04 02:20:26;;;;;;;1.90;1.00;;;11.60;90.80;;;;;;5045174;28;20468;-79
2023/06/04 02:22:55;;;;;;;2.60;1.03;;;11.60;91.20;;;;;;5045877;28;20495;-78
2023/06/04 02:25:23;;;;;;;3.93;1.90;;;11.50;91.40;;;;;;5045497;28;20517;-82
2023/06/04 02:27:50;;;;;;;2.47;1.53;;;11.50;91.70;;;;;;5045550;28;20464;-80
2023/06/04 02:30:17;;;;;;;1.27;1.00;;;11.50;92.50;;;;;;5044276;28;20550;-78
2023/06/04 02:32:45;;;;;;;1.53;1.27;;;11.40;92.90;;;;;;5046458;28;20528;-81
2023/06/04 02:35:12;;;;;;;1.87;1.17;;;11.50;93.60;;;;;;5045505;28;20445;-81
2023/06/04 02:37:41;;;;;;;1.63;1.53;;;11.40;93.40;;;;;;5045713;28;20519;-79
2023/06/04 02:40:09;;;;;;;11.23;2.00;;;11.40;93.90;;;;;;5038330;28;20481;-78
2023/06/04 02:42:36;;;;;;;2.37;1.23;;;11.30;95.10;;;;;;5034056;28;20494;-81
2023/06/04 02:45:03;;;;;;;5.10;2.23;;;11.30;95.20;;;;;;5031587;28;20555;-81
2023/06/04 02:47:30;;;;;;;3.67;1.40;;;11.30;95.10;;;;;;5038538;28;20473;-79
2023/06/04 02:49:57;;;;;;;2.23;1.37;;;11.20;95.30;;;;;;5048621;28;20488;-79
2023/06/04 02:52:25;;;;;;;2.70;2.50;;;11.10;96.00;;;;;;5049834;28;20473;-82
2023/06/04 02:54:53;;;;;;;2.57;1.30;;;11.20;95.90;;;;;;5049318;28;20507;-80
2023/06/04 02:57:20;;;;;;;1.97;1.43;;;11.10;95.10;;;;;;5047479;28;20444;-79
2023/06/04 02:59:47;;;;;;;3.03;1.23;;;11.10;95.80;;;;;;5046968;28;20500;-81
2023/06/04 03:02:14;;;;;;;2.80;1.40;;;11.00;95.80;;;;;;5035944;28;20469;-79
2023/06/04 03:04:42;;;;;;;2.50;1.50;;;11.10;96.20;;;;;;5048361;28;20467;-81
2023/06/04 03:07:11;;;;;;;1.53;1.30;;;10.90;95.70;;;;;;5049625;28;20472;-78
2023/06/04 03:09:39;;;;;;;2.50;1.30;;;11.00;96.40;;;;;;5048644;28;20441;-78
2023/06/04 03:12:08;;;;;;;1.73;1.27;;;11.10;96.50;;;;;;5049178;28;20465;-80
2023/06/04 03:14:35;;;;;;;1.80;1.30;;;11.10;98.00;;;;;;5047592;28;20483;-80
2023/06/04 03:17:07;;;;;;;3.97;1.50;;;11.10;97.00;;;;;;5048833;28;20516;-80
2023/06/04 03:19:35;;;;;;;2.30;0.93;;;11.20;97.00;;;;;;5047548;28;20455;-81
2023/06/04 03:22:05;;;;;;;2.23;1.63;;;11.40;95.90;;;;;;5047919;28;20452;-79
2023/06/04 03:24:35;;;;;;;1.77;1.30;;;11.40;95.60;;;;;;5048194;28;20445;-80
2023/06/04 03:27:02;;;;;;;2.70;1.20;;;11.40;96.00;;;;;;5048054;28;20511;-79
2023/06/04 03:29:31;;;;;;;2.57;1.00;;;11.50;95.90;;;;;;5048857;28;20536;-81
2023/06/04 03:31:58;;;;;;;1.80;1.57;;;11.50;95.90;;;;;;5048639;28;21051;-80
2023/06/04 03:34:25;;;;;;;5.30;1.97;;;11.60;95.90;;;;;;5048333;28;20928;-81
2023/06/04 03:36:52;;;;;;;3.67;1.50;;;11.80;95.10;;;;;;5047920;28;20465;-80
2023/06/04 03:39:19;;;;;;;2.27;1.10;;;11.80;95.20;;;;;;5049016;28;20530;-80
2023/06/04 03:41:47;;;;;;;1.90;1.53;;;11.80;95.20;;;;;;5047873;28;20457;-80
2023/06/04 03:44:14;;;;;;;1.00;1.00;;;11.80;94.90;;;;;;5048958;28;20966;-82
2023/06/04 03:46:43;;;;;;;1.47;1.23;;;11.80;94.90;;;;;;5047920;28;22509;-81
2023/06/04 03:49:10;;;;;;;5.97;2.27;;;11.80;95.50;;;;;;5048874;28;20502;-79
2023/06/04 03:51:37;;;;;;;1.53;1.07;;;11.90;95.50;;;;;;5048303;28;20444;-79
2023/06/04 03:54:04;;;;;;;2.13;1.87;;;12.10;95.50;;;;;;5047546;28;20488;-80
2023/06/04 03:56:31;;;;;;;5.23;1.90;;;12.20;95.30;;;;;;5047630;28;21034;-80
2023/06/04 03:58:59;;;;;;;4.00;1.90;;;12.30;93.80;;;;;;5046222;28;20492;-80
2023/06/04 04:01:26;;;;;;;1.80;1.47;;;12.30;94.00;;;;;;5047295;28;20445;-79
2023/06/04 04:03:54;;;;;;;3.73;1.10;;;12.40;94.30;;;;;;5043491;28;20811;-81
2023/06/04 04:06:22;;;;;;;1.93;1.33;;;12.60;93.70;;;;;;5047947;28;21033;-81
2023/06/04 04:08:49;;;;;;;3.43;1.40;;;12.70;93.10;;;;;;5048388;28;20503;-81
2023/06/04 04:11:17;;;;;;;4.33;1.77;;;12.90;94.30;;;;;;5047212;28;20519;-80
2023/06/04 04:13:46;;;;;;;2.13;1.83;;;13.10;93.60;;;;;;5046679;28;20468;-78
2023/06/04 04:16:13;;;;;;;2.37;1.30;;;13.30;92.40;;;;;;5048932;28;20969;-80
2023/06/04 04:18:43;;;;;;;2.40;1.57;;;13.10;92.50;;;;;;5046791;28;20472;-81
2023/06/04 04:21:12;;;;;;;3.83;1.10;;;13.20;92.90;;;;;;5042501;28;20980;-79
2023/06/04 04:23:40;;;;;;;7.77;1.77;;;13.20;93.30;;;;;;5048501;28;20498;-80
2023/06/04 04:26:09;;;;;;;3.47;1.70;;;13.20;94.10;;;;;;5047166;28;20477;-80
2023/06/04 04:28:37;;;;;;;2.77;1.40;;;13.40;94.30;;;;;;5047524;28;20452;-79
2023/06/04 04:31:03;;;;;;;1.90;1.30;;;13.40;94.20;;;;;;5048415;28;20506;-79
2023/06/04 04:33:36;;;;;;;4.50;1.87;;;13.50;94.30;;;;;;5046959;28;20437;-79
2023/06/04 04:36:04;;;;;;;3.23;1.60;;;13.50;93.90;;;;;;5045638;28;20810;-79
2023/06/04 04:38:33;;;;;;;2.10;1.77;;;13.80;95.30;;;;;;5048327;28;20498;-78
2023/06/04 04:41:01;;;;;;;4.40;2.10;;;14.20;94.60;;;;;;5045183;28;20960;-79
2023/06/04 04:43:32;;;;;;;1.90;1.40;;;14.20;94.30;;;;;;5047354;28;20439;-79
2023/06/04 04:45:59;;;;;;;2.03;1.60;;;14.10;94.10;;;;;;5042595;28;20555;-81
2023/06/04 04:48:26;;;;;;;4.30;1.70;;;14.00;93.40;;;;;;5029494;28;20496;-82
2023/06/04 04:50:53;;;;;;;3.13;1.80;;;13.90;93.60;;;;;;5035118;28;21143;-79
2023/06/04 04:53:20;;;;;;;3.37;1.97;;;14.20;91.20;;;;;;5030026;28;20512;-80
2023/06/04 04:55:49;;;;;;;2.70;1.40;;;14.40;91.70;;;;;;5028655;28;20468;-79
2023/06/04 04:58:16;;;;;;;3.43;1.60;;;14.40;91.20;;;;;;5028343;28;20525;-82
2023/06/04 05:00:43;;;;;;;2.27;1.40;;;14.30;91.30;;;;;;5042467;28;20489;-79
2023/06/04 05:03:10;;;;;;;2.80;1.27;;;14.40;92.10;;;;;;5037838;28;20445;-79
2023/06/04 05:05:37;;;;;;;2.00;1.33;;;14.30;90.90;;;;;;5027422;28;20446;-79
2023/06/04 05:08:05;;;;;;;3.10;1.60;;;13.90;91.00;;;;;;5041086;28;20487;-79
2023/06/04 05:10:31;;;;;;;1.57;1.47;;;13.90;91.30;;;;;;5033529;28;20936;-81
2023/06/04 05:13:01;;;;;;;4.20;1.67;;;13.90;91.50;;;;;;5031903;28;20837;-79
2023/06/04 05:15:29;;;;;;;3.40;1.47;;;13.90;92.00;;;;;;5029841;28;21570;-78
2023/06/04 05:17:57;;;;;;;10.20;1.77;;;13.80;90.90;;;;;;5042063;28;20455;-80
2023/06/04 05:20:25;;;;;;;4.67;1.60;;;13.70;92.00;;;;;;5042838;28;20461;-79
2023/06/04 05:22:51;;;;;;;1.87;1.50;;;14.00;91.30;;;;;;5039120;28;20438;-79
2023/06/04 05:25:19;;;;;;;2.13;1.37;;;14.10;90.10;;;;;;5039663;28;20496;-80
2023/06/04 05:27:48;;;;;;;3.43;1.40;;;14.20;90.40;;;;;;5037597;28;21251;-80
2023/06/04 05:30:17;;;;;;;3.13;1.47;;;14.00;91.00;;;;;;5032194;28;20458;-77
2023/06/04 05:32:44;;;;;;;3.47;1.50;;;13.90;90.60;;;;;;5036225;28;20549;-80
2023/06/04 05:35:11;;;;;;;2.77;1.53;;;14.10;90.40;;;;;;5034952;28;21000;-81
2023/06/04 05:37:40;;;;;;;3.33;1.10;;;14.00;91.60;;;;;;5040219;28;20487;-82
2023/06/04 05:40:09;;;;;;;1.63;1.27;;;14.20;91.20;;;;;;5032774;28;20492;-78
2023/06/04 05:42:36;;;;;;;1.30;1.20;;;14.40;92.30;;;;;;5044894;28;21226;-77
2023/06/04 05:45:04;;;;;;;3.00;2.07;;;14.50;90.90;;;;;;5029224;28;20474;-77
2023/06/04 05:47:32;;;;;;;1.93;1.67;;;14.40;90.70;;;;;;5037827;28;20520;-77
2023/06/04 05:49:59;;;;;;;3.60;1.33;;;14.70;90.80;;;;;;5044527;28;20486;-77
2023/06/04 05:52:26;;;;;;;4.30;2.20;;;14.50;90.80;;;;;;5044759;28;21004;-75
2023/06/04 05:54:53;;;;;;;2.70;2.50;;;14.70;91.60;;;;;;5032522;28;20575;-78
2023/06/04 05:57:20;;;;;;;2.43;2.17;;;14.70;90.70;;;;;;5036659;28;21255;-77
2023/06/04 05:59:47;;;;;;;2.27;1.53;;;14.80;90.30;;;;;;5040959;28;20484;-77
2023/06/04 06:02:15;;;;;;;2.50;1.27;;;15.10;88.80;;;;;;5030579;28;20441;-80
2023/06/04 06:04:43;;;;;;;2.43;1.60;;;15.20;86.70;;;;;;5035616;28;20487;-78
2023/06/04 06:07:10;;;;;;;1.20;1.10;;;15.10;87.10;;;;;;5032306;28;20941;-80
2023/06/04 06:09:37;;;;;;;1.50;1.30;;;15.10;88.80;;;;;;5038931;28;20493;-79
2023/06/04 06:12:05;;;;;;;1.40;1.30;;;14.90;89.40;;;;;;5035580;28;20535;-78
2023/06/04 06:14:32;;;;;;;2.70;1.20;;;15.00;83.50;;;;;;5031271;28;20473;-78
2023/06/04 06:17:00;;;;;;;2.00;1.37;;;15.20;86.30;;;;;;5028503;28;20492;-78
2023/06/04 06:19:27;;;;;;;2.13;1.20;;;15.20;83.30;;;;;;5027520;28;20521;-79
2023/06/04 06:21:55;;;;;;;1.90;1.10;;;15.20;87.60;;;;;;5028439;28;20464;-81
2023/06/04 06:24:22;;;;;;;1.50;1.20;;;15.20;84.50;;;;;;5031720;28;20511;-78
2023/06/04 06:26:49;;;;;;;3.17;1.47;;;15.30;84.10;;;;;;5039308;28;20505;-79
2023/06/04 06:29:16;;;;;;;2.13;1.30;;;15.80;85.50;;;;;;5032582;28;20484;-78
2023/06/04 06:31:43;;;;;;;2.37;2.17;;;15.80;85.90;;;;;;5028293;28;21206;-76
2023/06/04 06:34:10;;;;;;;6.10;1.60;;;16.00;83.30;;;;;;5038097;28;20515;-82
2023/06/04 06:36:37;;;;;;;3.07;1.10;;;16.20;85.30;;;;;;5030755;28;21052;-77
2023/06/04 06:39:05;;;;;;;6.70;2.23;;;16.20;79.60;;;;;;5035914;28;20546;-78
2023/06/04 06:41:32;;;;;;;6.90;2.90;;;16.60;77.00;;;;;;5046568;28;20465;-77
2023/06/04 06:43:59;;;;;;;6.43;3.20;;;17.10;77.20;;;;;;5045113;28;20493;-78
2023/06/04 06:46:26;;;;;;;2.70;1.23;;;17.70;76.10;;;;;;5045986;28;20487;-80
2023/06/04 06:48:53;;;;;;;2.20;1.27;;;18.50;72.50;;;;;;5050931;28;21272;-77
2023/06/04 06:51:20;;;;;;;1.53;1.37;;;18.10;70.90;;;;;;5040059;28;20470;-76
2023/06/04 06:53:47;;;;;;;2.73;1.50;;;17.50;69.50;;;;;;5037819;28;20538;-77
2023/06/04 06:56:17;;;;;;;1.63;1.27;;;17.00;73.00;;;;;;5043536;28;20509;-77
2023/06/04 06:58:45;;;;;;;3.10;1.30;;;16.60;74.60;;;;;;5038711;28;20510;-78
2023/06/04 07:01:12;;;;;;;1.97;1.77;;;16.40;74.60;;;;;;5043243;28;20998;-80
2023/06/04 07:03:39;;;;;;;2.20;1.30;;;15.90;76.40;;;;;;5038850;28;20480;-80
2023/06/04 07:06:06;;;;;;;2.47;1.50;;;16.00;78.00;;;;;;5039642;28;20492;-81
2023/06/04 07:08:34;;;;;;;2.77;1.60;;;16.30;76.30;;;;;;5043705;28;20512;-76
2023/06/04 07:11:03;;;;;;;2.20;1.30;;;16.40;76.20;;;;;;5036443;28;20456;-77
2023/06/04 07:13:34;;;;;;;3.27;1.73;;;15.90;77.40;;;;;;5037884;28;20542;-79
2023/06/04 07:16:02;;;;;;;1.50;1.00;;;16.10;77.30;;;;;;5036316;28;20558;-77
2023/06/04 07:18:29;;;;;;;3.00;2.33;;;16.10;76.40;;;;;;5042262;28;20601;-77
2023/06/04 07:20:56;;;;;;;2.33;1.00;;;16.00;76.70;;;;;;5041237;28;20545;-77
2023/06/04 07:23:23;;;;;;;3.00;1.30;;;16.00;80.00;;;;;;5041970;28;20561;-77
2023/06/04 07:25:50;;;;;;;5.83;1.30;;;16.10;80.40;;;;;;5043036;28;20630;-78
2023/06/04 07:28:17;;;;;;;2.13;1.40;;;16.10;76.40;;;;;;5042258;28;20515;-80
2023/06/04 07:30:46;;;;;;;2.07;1.20;;;16.20;78.50;;;;;;5042634;28;20971;-80
2023/06/04 07:33:13;;;;;;;3.30;1.50;;;16.00;76.60;;;;;;5041378;28;20940;-76
2023/06/04 07:35:40;;;;;;;1.93;1.30;;;15.90;77.20;;;;;;5039865;28;20944;-79
2023/06/04 07:38:07;;;;;;;1.80;1.33;;;15.90;78.20;;;;;;5039101;28;20493;-76
2023/06/04 07:40:34;;;;;;;2.60;1.40;;;15.80;78.30;;;;;;5041080;28;20457;-77
2023/06/04 07:43:01;;;;;;;3.00;1.00;;;16.00;80.80;;;;;;5046818;28;20433;-78
2023/06/04 07:45:29;;;;;;;2.50;1.17;;;16.10;77.80;;;;;;5036616;28;21070;-78
2023/06/04 07:47:57;;;;;;;2.97;1.30;;;16.30;75.50;;;;;;5037475;28;20543;-79
2023/06/04 07:50:25;;;;;;;3.37;1.17;;;16.50;76.60;;;;;;5039602;28;20441;-77
2023/06/04 07:52:52;;;;;;;2.00;1.30;;;16.80;78.70;;;;;;5042980;28;20875;-78
2023/06/04 07:55:19;;;;;;;1.40;1.10;;;17.10;76.00;;;;;;5030162;28;20512;-77
2023/06/04 07:57:46;;;;;;;2.40;1.20;;;17.80;75.80;;;;;;5036567;28;20923;-77
2023/06/04 08:00:14;;;;;;;4.97;1.67;;;18.10;73.70;;;;;;5040226;28;20544;-77
2023/06/04 08:02:41;;;;;;;2.87;1.17;;;18.70;73.10;;;;;;5041145;28;20812;-77
2023/06/04 08:05:10;;;;;;;3.20;1.20;;;19.10;71.50;;;;;;5033060;28;20529;-79
2023/06/04 08:07:37;;;;;;;2.70;1.60;;;19.30;69.50;;;;;;5028832;28;20487;-77
2023/06/04 08:10:04;;;;;;;2.63;1.23;;;18.90;70.80;;;;;;5043207;28;20877;-78
2023/06/04 08:12:31;;;;;;;3.43;1.70;;;19.10;68.60;;;;;;5031147;28;20466;-77
2023/06/04 08:14:58;;;;;;;4.53;1.50;;;19.30;65.70;;;;;;5042049;28;20947;-80
2023/06/04 08:17:25;;;;;;;2.23;1.43;;;18.80;62.90;;;;;;5036553;28;20474;-77
2023/06/04 08:19:52;;;;;;;4.00;1.70;;;18.70;63.90;;;;;;5044767;28;20463;-76
2023/06/04 08:22:20;;;;;;;1.27;1.10;;;18.40;66.30;;;;;;5032986;28;20494;-76
2023/06/04 08:24:47;;;;;;;3.10;1.70;;;18.10;69.70;;;;;;5036099;28;20507;-77
2023/06/04 08:27:15;;;;;;;2.13;1.67;;;18.10;69.10;;;;;;5041543;28;20509;-80
2023/06/04 08:29:42;;;;;;;2.47;1.40;;;18.10;67.40;;;;;;5038257;28;20464;-77
2023/06/04 08:32:09;;;;;;;2.23;1.30;;;18.00;66.30;;;;;;5048804;28;20456;-78
2023/06/04 08:34:36;;;;;;;5.70;1.67;;;18.00;68.70;;;;;;5041605;28;20463;-81
2023/06/04 08:37:03;;;;;;;1.67;1.20;;;18.00;69.60;;;;;;5030578;28;20546;-80
2023/06/04 08:39:33;;;;;;;2.50;1.87;;;18.80;73.40;;;;;;5039523;28;20498;-78
2023/06/04 08:42:05;;;;;;;3.33;1.97;;;19.50;69.00;;;;;;5048242;28;20487;-79
2023/06/04 08:44:32;;;;;;;2.80;2.00;;;19.70;61.50;;;;;;5053314;28;20592;-77
2023/06/04 08:47:04;;;;;;;1.57;1.47;;;19.70;62.60;;;;;;5046902;28;20483;-79
2023/06/04 08:49:35;;;;;;;1.40;1.30;;;19.50;62.50;;;;;;5040952;28;20467;-78
2023/06/04 08:52:02;;;;;;;1.60;1.30;;;19.30;66.20;;;;;;5039500;28;20966;-79
2023/06/04 08:54:31;;;;;;;3.10;2.23;;;19.00;66.60;;;;;;5044942;28;20461;-77
2023/06/04 08:56:58;;;;;;;4.80;1.43;;;19.10;65.80;;;;;;5047578;28;20440;-77
2023/06/04 08:59:25;;;;;;;3.67;1.83;;;19.00;63.30;;;;;;5045051;28;20871;-77
2023/06/04 09:01:54;;;;;;;2.07;1.77;;;19.10;68.20;;;;;;5047261;28;20515;-78
2023/06/04 09:04:21;;;;;;;1.50;1.40;;;19.10;66.80;;;;;;5046739;28;20457;-83
2023/06/04 09:06:50;;;;;;;3.30;1.43;;;18.70;67.80;;;;;;5037618;28;20532;-77
2023/06/04 09:09:19;;;;;;;2.10;1.73;;;19.30;66.40;;;;;;5042284;28;20963;-77
2023/06/04 09:11:52;;;;;;;3.70;2.10;;;20.00;63.40;;;;;;5043107;28;20455;-79
2023/06/04 09:14:19;;;;;;;7.03;1.53;;;20.20;59.20;;;;;;5042066;28;20485;-78
2023/06/04 09:16:47;;;;;;;4.40;2.70;;;20.60;59.20;;;;;;5044477;28;21011;-79
2023/06/04 09:19:14;;;;;;;3.93;1.83;;;21.20;59.20;;;;;;5039150;28;20489;-78
2023/06/04 09:21:49;;;;;;;2.40;1.83;;;21.40;59.70;;;;;;5040911;28;20453;-78
2023/06/04 09:24:16;;;;;;;4.30;1.93;;;21.60;59.80;;;;;;5040206;28;20500;-78
2023/06/04 09:26:43;;;;;;;1.60;1.50;;;21.90;59.50;;;;;;5045524;28;20541;-81
2023/06/04 09:29:11;;;;;;;4.60;2.73;;;22.00;59.50;;;;;;5034311;28;21064;-78
2023/06/04 09:31:39;;;;;;;2.40;2.20;;;21.20;56.70;;;;;;5035436;28;21152;-77
2023/06/04 09:34:07;;;;;;;2.30;1.43;;;21.20;59.00;;;;;;5036210;28;20462;-81
2023/06/04 09:36:35;;;;;;;1.70;1.43;;;21.40;58.50;;;;;;5040883;28;20935;-78
2023/06/04 09:39:02;;;;;;;2.80;2.60;;;21.80;56.60;;;;;;5033184;28;20454;-78
2023/06/04 09:41:29;;;;;;;3.33;2.43;;;21.80;57.70;;;;;;5031646;28;20442;-78
2023/06/04 09:44:03;;;;;;;4.70;2.20;;;22.30;58.10;;;;;;5033731;28;21394;-78
2023/06/04 09:46:32;;;;;;;3.47;2.27;;;22.50;60.90;;;;;;5033126;28;21043;-78
2023/06/04 09:49:03;;;;;;;6.00;2.03;;;22.80;59.70;;;;;;5034478;28;20567;-80
2023/06/04 09:51:31;;;;;;;3.63;1.67;;;22.50;55.20;;;;;;5043080;28;21039;-79
2023/06/04 09:53:59;;;;;;;2.17;1.97;;;22.20;57.00;;;;;;5041574;28;20497;-81
2023/06/04 09:56:27;;;;;;;2.80;1.50;;;21.60;58.50;;;;;;5038879;28;20508;-80
2023/06/04 09:58:56;;;;;;;6.47;2.23;;;21.60;59.60;;;;;;5044281;28;20491;-81
2023/06/04 10:01:27;;;;;;;3.23;2.47;;;21.80;58.60;;;;;;5040134;28;20446;-80
2023/06/04 10:03:56;;;;;;;3.83;2.30;;;21.80;58.80;;;;;;5036329;28;20446;-76
2023/06/04 10:06:24;;;;;;;2.47;2.27;;;21.80;56.90;;;;;;5035027;28;20449;-77
2023/06/04 10:08:52;;;;;;;2.37;1.97;;;21.90;58.10;;;;;;5039207;28;20474;-80
2023/06/04 10:11:26;;;;;;;3.00;2.47;;;22.10;56.70;;;;;;5033297;28;20512;-80
2023/06/04 10:13:57;;;;;;;2.90;2.60;;;22.20;56.90;;;;;;5040113;28;20453;-78
2023/06/04 10:16:26;;;;;;;2.27;1.80;;;21.90;54.70;;;;;;5042556;28;20472;-78
2023/06/04 10:18:56;;;;;;;3.20;2.60;;;21.90;59.50;;;;;;5048509;28;20598;-79
2023/06/04 10:21:23;;;;;;;3.33;2.23;;;22.30;58.00;;;;;;5040050;28;20460;-78
2023/06/04 10:23:51;;;;;;;2.37;2.17;;;22.20;56.90;;;;;;5036934;28;20488;-76
2023/06/04 10:26:18;;;;;;;1.90;1.70;;;21.60;58.00;;;;;;5044635;28;21092;-78
2023/06/04 10:28:45;;;;;;;2.57;2.37;;;21.60;61.90;;;;;;5037634;28;20597;-79
2023/06/04 10:31:13;;;;;;;8.60;2.10;;;21.50;59.30;;;;;;5043406;28;20493;-78
2023/06/04 10:33:40;;;;;;;2.40;2.10;;;21.30;61.50;;;;;;5048017;28;20546;-78
2023/06/04 10:36:19;;;;;;;7.60;2.57;;;21.40;61.90;;;;;;5042579;28;20898;-78
2023/06/04 10:38:47;;;;;;;3.20;2.30;;;21.60;59.50;;;;;;5044840;28;20514;-79
2023/06/04 10:41:18;;;;;;;2.33;2.10;;;21.80;61.00;;;;;;5033064;28;20477;-78
2023/06/04 10:43:46;;;;;;;3.10;2.40;;;22.10;57.90;;;;;;5053264;28;20495;-77
2023/06/04 10:46:14;;;;;;;3.13;2.30;;;22.30;58.90;;;;;;5039593;28;20559;-79
2023/06/04 10:48:49;;;;;;;4.60;2.43;;;22.30;61.10;;;;;;5038806;28;20477;-79
2023/06/04 10:51:29;;;;;;;3.33;2.93;;;22.20;60.30;;;;;;5040227;28;20461;-77
2023/06/04 10:53:56;;;;;;;2.97;2.37;;;22.20;63.00;;;;;;5039566;28;20441;-82
2023/06/04 10:56:26;;;;;;;3.03;2.63;;;22.00;59.60;;;;;;5040762;28;20449;-77
2023/06/04 10:58:53;;;;;;;3.90;2.07;;;21.40;58.70;;;;;;5041403;28;21000;-76
2023/06/04 11:01:25;;;;;;;5.30;2.73;;;22.00;67.50;;;;;;5039383;28;21107;-81
2023/06/04 11:03:52;;;;;;;8.40;3.10;;;22.70;64.70;;;;;;5037460;28;20962;-80
2023/06/04 11:06:21;;;;;;;3.40;2.30;;;22.90;59.00;;;;;;5040603;28;20480;-77
2023/06/04 11:08:48;;;;;;;2.90;2.07;;;22.80;59.80;;;;;;5034318;28;20490;-78
2023/06/04 11:11:16;;;;;;;3.43;2.67;;;23.30;60.00;;;;;;5044522;28;20461;-78
2023/06/04 11:13:44;;;;;;;3.57;3.00;;;23.30;58.30;;;;;;5040152;28;20465;-78
2023/06/04 11:16:17;;;;;;;4.63;2.60;;;23.30;60.00;;;;;;5044129;28;20476;-79
2023/06/04 11:18:54;;;;;;;2.90;2.33;;;22.60;57.30;;;;;;5043594;28;20863;-78
2023/06/04 11:21:23;;;;;;;2.03;1.93;;;21.90;60.00;;;;;;5040155;28;20446;-77
2023/06/04 11:23:55;;;;;;;4.30;3.13;;;22.60;66.30;;;;;;5039924;28;20543;-78
2023/06/04 11:26:25;;;;;;;2.57;2.30;;;23.00;57.30;;;;;;5041907;28;20459;-78
2023/06/04 11:28:53;;;;;;;5.03;2.43;;;23.10;61.70;;;;;;5037626;28;20479;-78
2023/06/04 11:31:21;;;;;;;2.50;2.20;;;23.20;58.00;;;;;;5047101;28;20554;-79
2023/06/04 11:33:48;;;;;;;3.07;2.77;;;23.60;57.90;;;;;;5032725;28;20976;-80
2023/06/04 11:36:26;;;;;;;2.33;1.97;;;24.00;57.00;;;;;;5041194;28;20493;-78
2023/06/04 11:38:57;;;;;;;2.23;2.13;;;24.30;53.90;;;;;;5042045;28;20999;-78
2023/06/04 11:41:25;;;;;;;3.13;2.37;;;24.10;50.50;;;;;;5042537;28;20553;-77
2023/06/04 11:43:52;;;;;;;4.93;2.20;;;24.20;58.30;;;;;;5048819;28;20445;-78
2023/06/04 11:46:20;;;;;;;4.20;3.87;;;24.00;58.90;;;;;;5045476;28;20517;-79
2023/06/04 11:48:47;;;;;;;3.07;2.77;;;23.70;56.40;;;;;;5048209;28;20566;-81
2023/06/04 11:51:14;;;;;;;3.23;2.93;;;23.60;59.50;;;;;;5050892;28;20493;-81
2023/06/04 11:53:43;;;;;;;2.20;1.97;;;23.40;56.20;;;;;;5047021;28;20597;-77
2023/06/04 11:56:11;;;;;;;2.40;2.30;;;23.80;54.40;;;;;;5047632;28;20887;-79
2023/06/04 11:58:38;;;;;;;2.67;2.40;;;24.40;60.60;;;;;;5045310;28;20471;-81
2023/06/04 12:01:05;;;;;;;5.53;3.00;;;25.00;57.30;;;;;;5046901;28;20463;-82
2023/06/04 12:03:37;;;;;;;5.63;4.80;;;24.60;55.00;;;;;;5048502;28;20442;-77
2023/06/04 12:06:12;;;;;;;3.20;2.97;;;23.50;54.00;;;;;;5044106;28;20526;-79
2023/06/04 12:08:48;;;;;;;2.63;2.43;;;23.50;53.40;;;;;;5047783;28;20570;-79
2023/06/04 12:11:27;;;;;;;3.23;2.70;;;23.80;55.10;;;;;;5048053;28;20939;-80
2023/06/04 12:13:58;;;;;;;3.07;2.37;;;24.20;58.40;;;;;;5046639;28;20524;-80
2023/06/04 12:16:25;;;;;;;2.43;1.90;;;24.60;58.60;;;;;;5047379;28;20538;-78
2023/06/04 12:18:52;;;;;;;2.73;1.90;;;24.90;58.70;;;;;;5046509;28;21107;-78
2023/06/04 12:21:26;;;;;;;2.77;2.50;;;25.00;58.20;;;;;;5047179;28;21022;-78
2023/06/04 12:23:56;;;;;;;3.17;2.70;;;25.00;56.90;;;;;;5049093;28;20471;-82
2023/06/04 12:26:29;;;;;;;2.70;2.50;;;25.30;55.10;;;;;;5045844;28;20509;-78
2023/06/04 12:29:01;;;;;;;7.20;3.37;;;25.30;53.70;;;;;;5042603;28;21188;-79
2023/06/04 12:31:31;;;;;;;2.40;1.70;;;26.00;52.80;;;;;;5046922;28;20488;-78
2023/06/04 12:34:00;;;;;;;3.17;2.53;;;26.10;54.70;;;;;;5034395;28;20440;-81
2023/06/04 12:36:28;;;;;;;3.13;2.47;;;26.50;53.30;;;;;;5041199;28;20462;-81
2023/06/04 12:39:00;;;;;;;2.60;2.40;;;26.90;51.30;;;;;;5046897;28;20467;-80
2023/06/04 12:41:27;;;;;;;2.20;2.07;;;26.90;49.20;;;;;;5046678;28;20555;-80
2023/06/04 12:43:55;;;;;;;3.37;3.17;;;26.80;49.60;;;;;;5049258;28;20546;-79
2023/06/04 12:46:22;;;;;;;2.90;2.60;;;26.00;53.40;;;;;;5047305;28;20511;-78
2023/06/04 12:48:50;;;;;;;7.50;2.67;;;25.70;51.40;;;;;;5044070;28;20947;-81
2023/06/04 12:51:17;;;;;;;3.33;3.03;;;25.70;52.80;;;;;;5044855;28;20515;-78
2023/06/04 12:53:44;;;;;;;2.80;2.60;;;24.80;50.80;;;;;;5036169;28;21110;-77